Terminal Aerodrome Forecast
Issued by NWS

Home | Current Version | Previous Version | Text Only | Print | Product List | Glossary On
Versions: 1 2 3 4 5 6 7 8 9 10 11 12 13 14 15 16 17 18 19
000
FTUS43 KGRB 290800 AAA
TAFCWA
TAF AMD
KCWA 290820Z 2908/3006 12005KT 4SM BR OVC004
      TEMPO 2912/2916 BKN008
     FM291600 16006KT 5SM HZ BKN015
     FM292000 22007KT P6SM SCT015 SCT140
     FM300400 27006KT P6SM SCT015 BKN140
      AMD LTD TO CLD VIS AND WIND TIL 291200=

USA.gov is the U.S. government's official web portal to all federal, state and local government web resources and services.